createdAt,value
2023-11-24T00:01:54.664Z,88.92
2023-11-24T00:04:21.090Z,88.74
2023-11-24T00:06:47.513Z,89.01
2023-11-24T00:09:14.683Z,96.20
2023-11-24T00:11:43.526Z,98.07
2023-11-24T00:14:10.141Z,95.24
2023-11-24T00:16:39.993Z,96.59
2023-11-24T00:19:11.717Z,98.98
2023-11-24T00:21:38.358Z,98.48
2023-11-24T00:24:05.864Z,99.35
2023-11-24T00:26:33.434Z,99.17
2023-11-24T00:29:00.830Z,97.73
2023-11-24T00:31:27.444Z,99.33
2023-11-24T00:33:54.265Z,98.96
2023-11-24T00:36:22.034Z,99.01
2023-11-24T00:38:51.385Z,98.18
2023-11-24T00:41:18.452Z,98.96
2023-11-24T00:43:48.737Z,98.09
2023-11-24T00:46:16.193Z,98.15
2023-11-24T00:48:42.694Z,98.88
2023-11-24T00:51:09.109Z,98.20
2023-11-24T00:53:36.257Z,96.63
2023-11-24T00:56:03.035Z,96.39
2023-11-24T00:58:29.404Z,95.83
2023-11-24T01:00:56.154Z,95.26
2023-11-24T01:03:22.948Z,96.29
2023-11-24T01:05:53.918Z,97.06
2023-11-24T01:08:20.799Z,94.97
2023-11-24T01:10:47.729Z,91.26
2023-11-24T01:13:14.330Z,93.84
2023-11-24T01:15:40.774Z,93.73
2023-11-24T01:18:08.055Z,94.72
2023-11-24T01:20:35.813Z,93.31
2023-11-24T01:23:02.392Z,93.85
2023-11-24T01:25:28.836Z,93.68
2023-11-24T01:27:56.289Z,94.56
2023-11-24T01:30:22.779Z,95.27
2023-11-24T01:32:49.289Z,95.13
2023-11-24T01:35:15.751Z,94.88
2023-11-24T01:37:42.174Z,95.65
2023-11-24T01:40:09.616Z,94.92
2023-11-24T01:42:39.625Z,94.44
2023-11-24T01:45:08.728Z,93.03
2023-11-24T01:47:35.386Z,93.46
2023-11-24T01:50:03.675Z,93.33
2023-11-24T01:52:31.865Z,92.21
2023-11-24T01:54:58.347Z,92.48
2023-11-24T01:57:25.091Z,92.05
2023-11-24T01:59:51.745Z,92.48
2023-11-24T02:02:21.843Z,91.86
2023-11-24T02:04:48.582Z,91.79
2023-11-24T02:07:15.223Z,91.91
2023-11-24T02:09:42.260Z,92.79
2023-11-24T02:12:08.751Z,89.18
2023-11-24T02:14:35.168Z,91.01
2023-11-24T02:17:01.578Z,91.38
2023-11-24T02:19:28.474Z,93.62
2023-11-24T02:21:55.024Z,91.25
2023-11-24T02:24:21.493Z,91.51
2023-11-24T02:26:47.927Z,88.92
2023-11-24T02:29:14.371Z,89.56
2023-11-24T02:31:41.210Z,89.89
2023-11-24T02:34:08.930Z,88.79
2023-11-24T02:36:37.386Z,88.56
2023-11-24T02:39:04.527Z,88.00
2023-11-24T02:41:31.415Z,87.93
2023-11-24T02:43:57.940Z,89.02
2023-11-24T02:46:24.389Z,88.85
2023-11-24T02:48:50.814Z,85.61
2023-11-24T02:51:19.153Z,85.77
2023-11-24T02:53:46.305Z,87.38
2023-11-24T02:56:13.734Z,91.13
2023-11-24T02:58:40.280Z,90.88
2023-11-24T03:01:06.850Z,90.38
2023-11-24T03:03:33.701Z,91.35
2023-11-24T03:06:06.763Z,92.38
2023-11-24T03:08:33.797Z,94.49
2023-11-24T03:11:06.047Z,94.74
2023-11-24T03:13:35.825Z,95.15
2023-11-24T03:16:04.549Z,96.67
2023-11-24T03:18:31.071Z,96.90
2023-11-24T03:20:57.479Z,97.95
2023-11-24T03:23:24.595Z,98.64
2023-11-24T03:25:51.463Z,99.59
2023-11-24T03:28:19.499Z,100.00
2023-11-24T03:30:47.547Z,100.00
2023-11-24T03:33:15.606Z,100.00
2023-11-24T03:35:42.057Z,100.00
2023-11-24T03:38:08.729Z,100.00
2023-11-24T03:40:35.159Z,100.00
2023-11-24T03:43:03.683Z,99.20
2023-11-24T03:45:30.862Z,99.44
2023-11-24T03:47:57.325Z,99.57
2023-11-24T03:50:24.193Z,94.01
2023-11-24T03:52:50.597Z,94.79
2023-11-24T03:55:17.091Z,93.63
2023-11-24T03:57:45.263Z,93.70
2023-11-24T04:00:12.064Z,93.43
2023-11-24T04:02:39.185Z,93.28
2023-11-24T04:05:06.674Z,93.83
2023-11-24T04:07:33.193Z,91.62
2023-11-24T04:09:59.645Z,91.80
2023-11-24T04:12:26.084Z,90.92
2023-11-24T04:14:53.530Z,88.33
2023-11-24T04:17:19.913Z,86.93
2023-11-24T04:19:46.327Z,88.30
2023-11-24T04:22:12.736Z,88.17
2023-11-24T04:24:40.050Z,87.70
2023-11-24T04:27:06.523Z,86.61
2023-11-24T04:29:32.958Z,87.74
2023-11-24T04:31:59.292Z,86.54
2023-11-24T04:34:25.789Z,85.20
2023-11-24T04:36:53.055Z,85.79
2023-11-24T04:39:19.493Z,84.79
2023-11-24T04:41:48.623Z,84.83
2023-11-24T04:44:15.341Z,84.36
2023-11-24T04:46:41.784Z,84.02
2023-11-24T04:49:08.314Z,83.76
2023-11-24T04:51:34.757Z,84.96
2023-11-24T04:54:03.809Z,85.01
2023-11-24T04:56:30.996Z,83.11
2023-11-24T04:58:57.828Z,83.59
2023-11-24T05:01:25.625Z,83.30
2023-11-24T05:03:54.932Z,84.01
2023-11-24T05:06:22.124Z,82.68
2023-11-24T05:08:49.077Z,83.73
2023-11-24T05:11:15.511Z,83.43
2023-11-24T05:13:41.855Z,84.29
2023-11-24T05:16:08.378Z,84.53
2023-11-24T05:18:34.801Z,84.45
2023-11-24T05:21:01.167Z,83.67
2023-11-24T05:23:27.514Z,84.06
2023-11-24T05:25:54.228Z,83.73
2023-11-24T05:28:20.768Z,84.81
2023-11-24T05:30:47.178Z,84.04
2023-11-24T05:33:13.663Z,84.52
2023-11-24T05:35:40.054Z,85.25
2023-11-24T05:38:06.694Z,84.92
2023-11-24T05:40:33.112Z,84.04
2023-11-24T05:42:59.577Z,84.57
2023-11-24T05:45:25.992Z,85.27
2023-11-24T05:47:52.669Z,84.24
2023-11-24T05:50:23.664Z,84.43
2023-11-24T05:52:50.294Z,83.04
2023-11-24T05:55:16.815Z,84.14
2023-11-24T05:57:44.159Z,83.84
2023-11-24T06:00:12.599Z,84.04
2023-11-24T06:02:38.992Z,85.70
2023-11-24T06:05:06.225Z,86.20
2023-11-24T06:07:32.748Z,83.31
2023-11-24T06:09:59.149Z,83.25
2023-11-24T06:12:26.098Z,84.79
2023-11-24T06:14:52.546Z,82.51
2023-11-24T06:17:19.107Z,83.71
2023-11-24T06:19:45.543Z,84.00
2023-11-24T06:22:11.949Z,84.54
2023-11-24T06:24:38.346Z,83.60
2023-11-24T06:27:05.471Z,82.82
2023-11-24T06:29:32.120Z,83.06
2023-11-24T06:31:58.464Z,83.35
2023-11-24T06:34:26.073Z,82.68
2023-11-24T06:36:52.818Z,83.42
2023-11-24T06:39:22.620Z,81.60
2023-11-24T06:41:49.023Z,81.83
2023-11-24T06:44:17.083Z,81.23
2023-11-24T06:46:43.847Z,81.61
2023-11-24T06:49:10.900Z,81.09
2023-11-24T06:51:37.458Z,82.06
2023-11-24T06:54:04.258Z,82.93
2023-11-24T06:56:32.349Z,81.93
2023-11-24T06:58:58.741Z,82.71
2023-11-24T07:01:33.858Z,82.65
2023-11-24T07:04:01.042Z,83.35
2023-11-24T07:06:27.588Z,83.55
2023-11-24T07:08:54.038Z,82.66
2023-11-24T07:11:21.467Z,81.67
2023-11-24T07:13:48.050Z,82.55
2023-11-24T07:16:15.099Z,81.78
2023-11-24T07:18:41.757Z,82.84
2023-11-24T07:21:08.741Z,82.97
2023-11-24T07:23:38.560Z,83.19
2023-11-24T07:26:09.270Z,83.69
2023-11-24T07:28:37.157Z,83.60
2023-11-24T07:31:05.126Z,83.34
2023-11-24T07:33:34.799Z,84.97
2023-11-24T07:36:01.529Z,85.73
2023-11-24T07:38:27.982Z,86.61
2023-11-24T07:40:55.220Z,85.41
2023-11-24T07:43:21.601Z,86.56
2023-11-24T07:45:50.175Z,88.57
2023-11-24T07:48:16.751Z,88.73
2023-11-24T07:50:43.176Z,90.70
2023-11-24T07:53:16.226Z,91.06
2023-11-24T07:55:42.822Z,90.47
2023-11-24T07:58:09.970Z,89.61
2023-11-24T08:00:36.496Z,89.12
2023-11-24T08:03:04.345Z,88.05
2023-11-24T08:05:30.955Z,87.95
2023-11-24T08:07:58.465Z,89.80
2023-11-24T08:10:26.176Z,89.16
2023-11-24T08:15:43.039Z,93.76
2023-11-24T08:18:09.527Z,92.50
2023-11-24T08:20:36.073Z,94.05
2023-11-24T08:23:02.423Z,92.61
2023-11-24T08:25:28.785Z,93.21
2023-11-24T08:27:55.174Z,94.94
2023-11-24T08:30:21.522Z,96.42
2023-11-24T08:32:49.725Z,96.30
2023-11-24T08:35:16.592Z,95.73
2023-11-24T08:37:43.161Z,96.35
2023-11-24T08:40:12.446Z,95.47
2023-11-24T08:42:39.776Z,98.50
2023-11-24T08:45:07.637Z,94.37
2023-11-24T08:47:34.120Z,98.74
2023-11-24T08:50:00.973Z,99.42
2023-11-24T08:52:27.588Z,100.00
2023-11-24T08:54:53.968Z,100.00
2023-11-24T08:57:20.382Z,100.00
2023-11-24T08:59:46.796Z,100.00
2023-11-24T09:02:13.438Z,100.00
2023-11-24T09:04:39.900Z,100.00
2023-11-24T09:07:06.431Z,100.00
2023-11-24T09:09:34.444Z,100.00
2023-11-24T09:12:01.684Z,100.00
2023-11-24T09:14:28.435Z,100.00
2023-11-24T09:16:55.314Z,100.00
2023-11-24T09:19:21.731Z,100.00
2023-11-24T09:21:49.537Z,100.00
2023-11-24T09:24:16.500Z,99.52
2023-11-24T09:26:44.488Z,98.42
2023-11-24T09:29:11.247Z,97.81
2023-11-24T09:31:38.195Z,96.94
2023-11-24T09:34:05.432Z,96.95
2023-11-24T09:36:31.942Z,93.56
2023-11-24T09:38:58.370Z,93.85
2023-11-24T09:41:24.763Z,95.18
2023-11-24T09:43:51.271Z,92.83
2023-11-24T09:46:20.651Z,93.11
2023-11-24T09:48:49.148Z,91.83
2023-11-24T09:51:18.440Z,90.80
2023-11-24T09:53:45.322Z,91.33
2023-11-24T09:56:11.955Z,91.04
2023-11-24T09:58:38.415Z,90.50
2023-11-24T10:01:17.793Z,88.35
2023-11-24T10:03:50.972Z,88.15
2023-11-24T10:06:19.285Z,86.20
2023-11-24T10:08:48.838Z,86.57
2023-11-24T10:11:19.291Z,88.00
2023-11-24T10:13:49.952Z,88.34
2023-11-24T10:16:17.959Z,86.86
2023-11-24T10:18:44.657Z,86.80
2023-11-24T10:21:23.097Z,85.21
2023-11-24T10:23:57.201Z,85.54
2023-11-24T10:26:26.115Z,83.51
2023-11-24T10:28:53.430Z,84.21
2023-11-24T10:31:20.797Z,84.06
2023-11-24T10:33:48.404Z,82.71
2023-11-24T10:36:18.302Z,80.29
2023-11-24T10:38:47.340Z,81.13
2023-11-24T10:41:20.760Z,81.91
2023-11-24T10:43:49.504Z,81.32
2023-11-24T10:46:19.531Z,80.13
2023-11-24T10:49:00.646Z,80.73
2023-11-24T10:51:33.330Z,80.54
2023-11-24T10:54:03.617Z,79.80
2023-11-24T10:56:32.414Z,81.53
2023-11-24T10:59:00.696Z,81.06
2023-11-24T11:01:28.559Z,83.03
2023-11-24T11:03:59.958Z,80.90
2023-11-24T11:06:49.680Z,81.79
2023-11-24T11:09:24.911Z,82.99
2023-11-24T11:12:30.724Z,83.54
2023-11-24T11:14:57.285Z,83.55
2023-11-24T11:17:26.294Z,82.88
2023-11-24T11:20:24.348Z,84.50
2023-11-24T11:23:00.816Z,85.21
2023-11-24T11:25:27.113Z,85.29
2023-11-24T11:27:56.962Z,88.02
2023-11-24T11:30:27.104Z,85.44
2023-11-24T11:33:04.608Z,86.77
2023-11-24T11:35:35.357Z,88.66
2023-11-24T11:38:01.835Z,87.84
2023-11-24T11:40:28.217Z,89.16
2023-11-24T11:43:00.726Z,86.20
2023-11-24T11:45:31.177Z,84.53
2023-11-24T11:48:04.022Z,81.43
2023-11-24T11:50:34.758Z,82.03
2023-11-24T11:53:03.204Z,81.98
2023-11-24T11:55:30.267Z,84.17
2023-11-24T11:57:58.646Z,82.80
2023-11-24T12:00:30.176Z,81.92
2023-11-24T12:02:58.472Z,82.88
2023-11-24T12:05:27.081Z,82.57
2023-11-24T12:08:00.401Z,83.63
2023-11-24T12:10:30.608Z,81.21
2023-11-24T12:13:00.394Z,80.19
2023-11-24T12:15:26.783Z,79.49
2023-11-24T12:17:58.722Z,78.82
2023-11-24T12:20:25.645Z,78.91
2023-11-24T12:22:53.484Z,80.22
2023-11-24T12:25:22.281Z,78.64
2023-11-24T12:27:48.907Z,78.40
2023-11-24T12:30:16.099Z,78.93
2023-11-24T12:32:43.873Z,79.53
2023-11-24T12:35:10.581Z,82.21
2023-11-24T12:37:41.841Z,80.09
2023-11-24T12:40:13.144Z,80.61
2023-11-24T12:42:40.388Z,82.60
2023-11-24T12:45:09.365Z,82.92
2023-11-24T12:50:11.785Z,85.00
2023-11-24T12:52:40.091Z,86.76
2023-11-24T12:55:10.523Z,83.61
2023-11-24T12:57:43.490Z,82.49
2023-11-24T13:00:14.468Z,84.49
2023-11-24T13:02:44.724Z,86.46
2023-11-24T13:05:13.643Z,86.47
2023-11-24T13:07:43.848Z,85.80
2023-11-24T13:10:13.815Z,86.00
2023-11-24T13:12:41.348Z,86.54
2023-11-24T13:15:09.249Z,85.83
2023-11-24T13:17:36.197Z,85.78
2023-11-24T13:20:05.422Z,83.97
2023-11-24T13:22:34.972Z,84.71
2023-11-24T13:25:02.228Z,83.98
2023-11-24T13:27:30.426Z,83.31
2023-11-24T13:29:57.833Z,82.44
2023-11-24T13:32:24.231Z,82.31
2023-11-24T13:34:51.336Z,82.08
2023-11-24T13:37:18.624Z,83.17
2023-11-24T13:39:46.735Z,83.31
2023-11-24T13:42:17.244Z,82.08
2023-11-24T13:44:43.596Z,81.70
2023-11-24T13:47:14.674Z,80.96
2023-11-24T13:49:41.773Z,80.02
2023-11-24T13:52:08.497Z,80.20
2023-11-24T13:54:36.462Z,79.78
2023-11-24T13:57:03.762Z,78.57
2023-11-24T13:59:30.850Z,77.41
2023-11-24T14:01:57.344Z,76.99
2023-11-24T14:04:25.548Z,74.59
2023-11-24T14:06:52.829Z,73.96
2023-11-24T14:09:30.467Z,73.80
2023-11-24T14:11:57.492Z,74.65
2023-11-24T14:14:24.608Z,73.31
2023-11-24T14:16:51.464Z,72.70
2023-11-24T14:19:18.247Z,75.31
2023-11-24T14:21:45.067Z,71.86
2023-11-24T14:24:12.651Z,73.61
2023-11-24T14:26:45.110Z,70.50
2023-11-24T14:29:13.673Z,72.14
2023-11-24T14:31:41.035Z,72.01
2023-11-24T14:34:07.780Z,72.62
2023-11-24T14:36:36.857Z,73.75
2023-11-24T14:39:04.409Z,73.70
2023-11-24T14:41:33.745Z,74.07
2023-11-24T14:44:00.419Z,75.71
2023-11-24T14:46:30.892Z,76.68
2023-11-24T14:48:57.970Z,76.26
2023-11-24T14:51:27.518Z,76.63
2023-11-24T14:53:53.961Z,75.99
2023-11-24T14:56:20.537Z,77.16
2023-11-24T14:58:47.187Z,76.86
2023-11-24T15:01:20.872Z,76.59
2023-11-24T15:03:50.558Z,75.90
2023-11-24T15:06:18.945Z,78.03
2023-11-24T15:08:55.248Z,77.42
2023-11-24T15:11:23.349Z,78.87
2023-11-24T15:13:55.925Z,77.77
2023-11-24T15:16:29.718Z,78.59
2023-11-24T15:18:56.756Z,76.96
2023-11-24T15:21:34.768Z,77.83
2023-11-24T15:24:03.276Z,76.85
2023-11-24T15:26:30.026Z,76.61
2023-11-24T15:28:57.066Z,75.78
2023-11-24T15:31:30.359Z,74.84
2023-11-24T15:33:58.047Z,75.03
2023-11-24T15:36:30.573Z,73.74
2023-11-24T15:38:57.820Z,73.45
2023-11-24T15:41:38.983Z,74.40
2023-11-24T15:44:10.292Z,74.25
2023-11-24T15:46:39.144Z,74.63
2023-11-24T15:49:16.713Z,74.91
2023-11-24T15:51:46.847Z,74.84
2023-11-24T15:54:14.486Z,77.09
2023-11-24T15:56:40.910Z,76.99
2023-11-24T15:59:12.413Z,78.51
2023-11-24T16:01:42.499Z,77.04
2023-11-24T16:04:11.766Z,78.42
2023-11-24T16:06:46.569Z,79.26
2023-11-24T16:09:13.863Z,79.30
2023-11-24T16:11:58.986Z,80.69
2023-11-24T16:14:25.676Z,80.38
2023-11-24T16:16:53.646Z,81.22
2023-11-24T16:19:20.594Z,82.03
2023-11-24T16:21:47.000Z,82.46
2023-11-24T16:24:13.415Z,82.85
2023-11-24T16:26:39.788Z,82.77
2023-11-24T16:29:06.152Z,82.59
2023-11-24T16:31:34.068Z,82.59
2023-11-24T16:34:02.331Z,83.49
2023-11-24T16:36:28.919Z,83.61
2023-11-24T16:38:55.824Z,82.77
2023-11-24T16:41:22.216Z,82.49
2023-11-24T16:43:48.574Z,82.06
2023-11-24T16:46:15.006Z,82.43
2023-11-24T16:48:41.670Z,83.34
2023-11-24T16:51:08.561Z,83.15
2023-11-24T16:53:34.912Z,84.29
2023-11-24T16:56:01.327Z,84.42
2023-11-24T16:58:27.766Z,85.80
2023-11-24T17:00:55.395Z,88.04
2023-11-24T17:03:21.889Z,89.33
2023-11-24T17:05:48.340Z,89.97
2023-11-24T17:08:14.674Z,92.63
2023-11-24T17:10:41.089Z,95.87
2023-11-24T17:13:07.787Z,98.24
2023-11-24T17:15:34.361Z,99.42
2023-11-24T17:18:00.762Z,99.98
2023-11-24T17:20:28.015Z,100.00
2023-11-24T17:22:54.542Z,100.00
2023-11-24T17:25:32.092Z,99.46
2023-11-24T17:28:03.247Z,99.23
2023-11-24T17:30:29.684Z,100.00
2023-11-24T17:32:56.282Z,100.00
2023-11-24T17:35:24.940Z,100.00
2023-11-24T17:37:52.244Z,99.44
2023-11-24T17:40:18.716Z,98.00
2023-11-24T17:42:45.489Z,99.17
2023-11-24T17:45:16.780Z,97.87
2023-11-24T17:47:45.305Z,98.41
2023-11-24T17:50:11.790Z,98.64
2023-11-24T17:52:39.487Z,97.85
2023-11-24T17:55:10.112Z,98.18
2023-11-24T17:57:39.948Z,97.16
2023-11-24T18:00:12.542Z,97.16
2023-11-24T18:02:39.656Z,97.10
2023-11-24T18:05:07.964Z,96.61
2023-11-24T18:07:35.349Z,95.93
2023-11-24T18:10:03.464Z,97.22
2023-11-24T18:12:30.002Z,97.34
2023-11-24T18:14:56.345Z,96.12
2023-11-24T18:17:22.765Z,96.93
2023-11-24T18:19:50.387Z,97.27
2023-11-24T18:22:18.524Z,96.81
2023-11-24T18:24:45.071Z,98.16
2023-11-24T18:27:11.449Z,97.32
2023-11-24T18:29:38.962Z,97.24
2023-11-24T18:32:05.872Z,95.43
2023-11-24T18:34:32.289Z,95.64
2023-11-24T18:36:59.028Z,96.27
2023-11-24T18:39:28.700Z,96.03
2023-11-24T18:41:55.383Z,95.44
2023-11-24T18:44:21.758Z,95.01
2023-11-24T18:46:49.174Z,95.64
2023-11-24T18:49:16.705Z,92.97
2023-11-24T18:51:44.025Z,93.32
2023-11-24T18:54:10.662Z,91.52
2023-11-24T18:56:37.144Z,91.12
2023-11-24T18:59:03.483Z,91.92
2023-11-24T19:01:29.926Z,91.51
2023-11-24T19:03:56.405Z,91.34
2023-11-24T19:06:23.681Z,92.47
2023-11-24T19:08:51.895Z,92.57
2023-11-24T19:11:21.612Z,91.91
2023-11-24T19:13:49.669Z,92.27
2023-11-24T19:16:16.475Z,91.47
2023-11-24T19:18:43.624Z,92.44
2023-11-24T19:21:16.797Z,90.76
2023-11-24T19:23:43.566Z,92.19
2023-11-24T19:26:12.810Z,91.21
2023-11-24T19:28:41.433Z,91.67
2023-11-24T19:31:08.590Z,91.70
2023-11-24T19:33:35.835Z,91.96
2023-11-24T19:36:02.303Z,90.68
2023-11-24T19:38:28.798Z,90.06
2023-11-24T19:40:55.193Z,89.91
2023-11-24T19:43:21.590Z,90.26
2023-11-24T19:45:48.327Z,88.79
2023-11-24T19:48:18.728Z,88.98
2023-11-24T19:50:45.087Z,88.35
2023-11-24T19:53:11.594Z,86.87
2023-11-24T19:55:38.019Z,88.04
2023-11-24T19:58:06.789Z,84.64
2023-11-24T20:00:33.158Z,85.38
2023-11-24T20:02:59.598Z,85.37
2023-11-24T20:05:28.282Z,86.67
2023-11-24T20:07:54.697Z,86.38
2023-11-24T20:10:21.115Z,86.89
2023-11-24T20:12:47.495Z,86.54
2023-11-24T20:15:14.371Z,88.05
2023-11-24T20:17:40.784Z,90.42
2023-11-24T20:20:09.716Z,89.66
2023-11-24T20:22:36.185Z,91.11
2023-11-24T20:25:05.095Z,89.97
2023-11-24T20:27:31.517Z,89.65
2023-11-24T20:29:58.683Z,91.83
2023-11-24T20:32:25.122Z,94.23
2023-11-24T20:34:51.560Z,95.50
2023-11-24T20:37:18.232Z,96.48
2023-11-24T20:39:45.180Z,97.40
2023-11-24T20:42:12.403Z,97.40
2023-11-24T20:44:39.122Z,100.00
2023-11-24T20:47:05.788Z,100.00
2023-11-24T20:49:32.341Z,100.00
2023-11-24T20:51:58.815Z,100.00
2023-11-24T20:54:25.205Z,100.00
2023-11-24T20:56:51.804Z,100.00
2023-11-24T20:59:18.742Z,100.00
2023-11-24T21:01:45.348Z,100.00
2023-11-24T21:04:13.256Z,100.00
2023-11-24T21:06:41.241Z,100.00
2023-11-24T21:09:11.056Z,100.00
2023-11-24T21:11:37.514Z,100.00
2023-11-24T21:14:03.861Z,100.00
2023-11-24T21:16:30.852Z,100.00
2023-11-24T21:18:57.271Z,100.00
2023-11-24T21:21:23.730Z,100.00
2023-11-24T21:23:50.810Z,100.00
2023-11-24T21:26:24.055Z,100.00
2023-11-24T21:28:51.750Z,100.00
2023-11-24T21:31:21.596Z,100.00
2023-11-24T21:33:50.019Z,100.00
2023-11-24T21:36:16.844Z,100.00
2023-11-24T21:38:44.147Z,100.00
2023-11-24T21:41:12.022Z,100.00
2023-11-24T21:43:40.686Z,100.00
2023-11-24T21:46:07.380Z,100.00
2023-11-24T21:48:34.275Z,100.00
2023-11-24T21:51:05.253Z,100.00
2023-11-24T21:53:31.731Z,100.00
2023-11-24T21:55:58.181Z,98.50
2023-11-24T21:58:24.603Z,96.36
2023-11-24T22:00:50.972Z,93.51
2023-11-24T22:03:17.430Z,93.48
2023-11-24T22:05:44.608Z,94.23
2023-11-24T22:08:10.991Z,94.42
2023-11-24T22:10:37.465Z,91.86
2023-11-24T22:13:04.991Z,93.56
2023-11-24T22:15:31.630Z,94.36
2023-11-24T22:17:58.903Z,93.19
2023-11-24T22:20:25.404Z,91.69
2023-11-24T22:22:51.962Z,91.98
2023-11-24T22:25:18.503Z,93.99
2023-11-24T22:27:45.111Z,94.19
2023-11-24T22:30:11.739Z,92.60
2023-11-24T22:32:38.209Z,93.08
2023-11-24T22:35:05.116Z,93.01
2023-11-24T22:37:32.915Z,93.69
2023-11-24T22:39:59.598Z,91.01
2023-11-24T22:42:26.030Z,92.68
2023-11-24T22:44:53.972Z,90.82
2023-11-24T22:47:20.541Z,91.41
2023-11-24T22:49:46.989Z,90.55
2023-11-24T22:52:13.445Z,90.73
2023-11-24T22:54:41.848Z,90.82
2023-11-24T22:57:08.252Z,92.23
2023-11-24T22:59:34.721Z,90.88
2023-11-24T23:02:01.483Z,91.88
2023-11-24T23:04:28.046Z,91.11
2023-11-24T23:06:54.397Z,92.42
2023-11-24T23:09:22.787Z,93.83
2023-11-24T23:11:49.969Z,91.18
2023-11-24T23:14:16.380Z,92.14
2023-11-24T23:16:44.950Z,92.32
2023-11-24T23:19:12.737Z,90.63
2023-11-24T23:21:41.552Z,91.29
2023-11-24T23:24:11.539Z,90.83
2023-11-24T23:26:38.533Z,90.24
2023-11-24T23:29:05.029Z,90.98
2023-11-24T23:31:31.489Z,91.17
2023-11-24T23:33:57.979Z,91.96
2023-11-24T23:36:24.527Z,93.20
2023-11-24T23:38:51.316Z,89.97
2023-11-24T23:41:17.848Z,91.47
2023-11-24T23:43:44.418Z,91.12
2023-11-24T23:46:12.973Z,90.40
2023-11-24T23:48:39.948Z,92.34
2023-11-24T23:51:07.443Z,91.77
2023-11-24T23:53:34.239Z,92.06
2023-11-24T23:56:01.022Z,93.41
2023-11-24T23:58:27.761Z,94.31
